Terminal Aerodrome Forecast
Issued by NWS

Home | Current Version | Previous Version | Text Only | Print | Product List | Glossary On
Versions: 1 2 3 4 5 6 7 8 9 10 11 12 13 14 15 16
000
FTUS45 KVEF 051723
TAFVGT
TAF
KVGT 051723Z 0518/0618 13007KT P6SM FEW120
     FM060200 20010KT P6SM FEW120
     FM061000 15008KT P6SM FEW120=

USA.gov is the U.S. government's official web portal to all federal, state and local government web resources and services.